Clayton le Moors, United Kingdom
Current Conditions -  °F | °C
As of 9:20 AM on Saturday 20 Dec 2014 (Local Time) from EGNO Reporting Station
Broken Clouds Broken Clouds  
Wind Chill: 38°   Ceiling: 4000
Heat Index: 46°   Visibility: 6mi
Dew Point: 39°   Wind: 23mph
Humidity: 76%   Direction: 290°WNW
Pressure: 30.15"   Gusts: 35mph
Location:  53.77°N, 2.38°W
Report Text: EGNO 200920Z 29020G30KT 9999 FEW024CB BKN040 08/04 Q1021
Loading
Personal Weather Stations






























Interactive Weather Map New forecast layout! Learn more

10-Day Weather Forecast

Advertisements
Track Severe Weather on mobile